Flight Track Log - Related Links

Times and Time Zones

All times are in EDT time to prevent confusion due to time zone crossing. See the GJS6206 flight status page for this flight to view local times or setup timezone preferences in your user account.

Time Position Orientation Groundspeed Altitude Reporting Facility
EDT Latitude Longitude Course Direction KTS MPH feet Rate Location/Type
Wed 08:37:32 PM 42.2250 -83.3394 350° North 145 167 1,500  Level Cleveland Center
Wed 08:38:27 PM 42.2706 -83.3500 350° North 224 258 3,800 2,224 Climbing Cleveland Center
Wed 08:39:28 PM 42.3389 -83.3697 348° North 275 316 5,800 2,564 Climbing Cleveland Center
Wed 08:40:24 PM 42.3683 -83.4414 299° West 238 274 8,800 2,534 Climbing Cleveland Center
Wed 08:41:24 PM 42.3617 -83.5394 265° West 298 343 10,700 2,162 Climbing Cleveland Center
Wed 08:42:15 PM 42.3267 -83.6053 234° Southwest 297 342 12,800 1,243 Climbing Cleveland Center
Wed 08:43:15 PM 42.2489 -83.6325 195° South 316 364 13,000 650 Climbing Cleveland Center
Wed 08:44:15 PM 42.1592 -83.6281 178° South 316 364 14,100 1,700 Climbing Cleveland Center
Wed 08:45:15 PM 42.0700 -83.6153 174° South 316 364 16,400 2,000 Climbing Cleveland Center
Wed 08:46:15 PM 41.9786 -83.6028 174° South 321 369 18,100 1,664 Climbing Cleveland Center
Wed 08:47:14 PM 41.8664 -83.5919 176° South 347 399 19,700 1,916 Climbing Cleveland Center
Wed 08:48:14 PM 41.7686 -83.5789 174° South 359 413 21,900 1,800 Climbing Cleveland Center
Wed 08:49:14 PM 41.6644 -83.5769 179° South 365 420 23,300 1,400 Climbing Cleveland Center
Wed 08:50:14 PM 41.5594 -83.6053 191° South 375 432 24,700 1,388 Climbing Cleveland Center
Wed 08:51:15 PM 41.4522 -83.6417 194° South 385 443 26,100 1,300 Climbing Cleveland Center
Wed 08:52:14 PM 41.3544 -83.7064 206° Southwest 390 449 27,300 1,300 Climbing Cleveland Center
Wed 08:53:15 PM 41.2586 -83.7764 209° Southwest 395 455 28,700 1,041 Climbing Cleveland Center
Wed 08:54:15 PM 41.1778 -83.8331 208° Southwest 408 470 29,400 718 Climbing Cleveland Center
Wed 08:55:37 PM 41.0211 -83.9406 207° Southwest 419 482 30,400 839 Climbing Indianapolis Center
Wed 08:56:38 PM 40.9122 -84.0169 208° Southwest 432 497 31,400 934 Climbing Indianapolis Center
Wed 08:57:39 PM 40.8033 -84.0919 208° Southwest 437 503 32,300 885 Climbing Indianapolis Center
Wed 08:58:40 PM 40.6992 -84.1758 211° Southwest 439 505 33,200 829 Climbing Indianapolis Center
Wed 08:59:42 PM 40.6242 -84.2989 231° Southwest 434 499 34,000 390 Climbing Indianapolis Center
Wed 09:00:43 PM 40.5675 -84.4353 241° Southwest 427 491 34,000  Level Indianapolis Center
Wed 09:01:44 PM 40.4831 -84.5508 226° Southwest 436 502 34,000  Level Indianapolis Center
Wed 09:02:45 PM 40.4042 -84.6683 229° Southwest 428 493 34,000  Level Indianapolis Center
Wed 09:03:47 PM 40.3308 -84.7878 231° Southwest 420 483 34,000  Level Indianapolis Center
Wed 09:04:48 PM 40.2569 -84.9053 231° Southwest 416 479 34,000  Level Indianapolis Center
Wed 09:05:49 PM 40.1681 -85.0394 229° Southwest 415 478 34,000  Level Indianapolis Center
Wed 09:06:50 PM 40.0872 -85.1558 228° Southwest 429 494 34,000  Level Indianapolis Center
Wed 09:07:52 PM 40.0128 -85.2806 232° Southwest 433 498 34,000  Level Indianapolis Center
Wed 09:08:53 PM 39.9547 -85.4172 241° Southwest 428 493 34,000 -49 Level Indianapolis Center
Wed 09:09:54 PM 39.9242 -85.5661 255° West 422 486 33,900  Descending Indianapolis Center
Wed 09:10:55 PM 39.8917 -85.7167 254° West 427 491 34,000 49 Climbing Indianapolis Center
Wed 09:11:56 PM 39.8614 -85.8658 255° West 424 488 34,000  Level Indianapolis Center
Wed 09:12:58 PM 39.8278 -86.0119 253° West 425 489 34,000  Level Indianapolis Center
Wed 09:13:59 PM 39.7964 -86.1611 255° West 426 490 34,000  Level Indianapolis Center
Wed 09:15:00 PM 39.7625 -86.3106 254° West 429 494 34,000  Level Indianapolis Center
Wed 09:16:01 PM 39.7322 -86.4553 255° West 419 482 34,000  Level Indianapolis Center
Wed 09:17:03 PM 39.6986 -86.6022 253° West 422 486 34,000 -146 Level Indianapolis Center
Wed 09:18:04 PM 39.6642 -86.7569 254° West 439 505 33,700 -1,131 Descending Indianapolis Center
Wed 09:19:05 PM 39.6300 -86.9108 254° West 444 511 31,700 -1,820 Descending Indianapolis Center
Wed 09:20:06 PM 39.5897 -87.0897 254° West 438 504 30,000 -836 Descending Indianapolis Center
Wed 09:21:07 PM 39.5569 -87.2317 253° West 425 489 30,000  Level Indianapolis Center
Wed 09:22:09 PM 39.5228 -87.3761 253° West 420 483 30,000  Level Indianapolis Center
Wed 09:23:10 PM 39.4886 -87.5275 254° West 429 494 30,000  Level Indianapolis Center
Wed 09:24:11 PM 39.4544 -87.6753 253° West 430 495 30,000 -492 Level Indianapolis Center
Wed 09:25:12 PM 39.4242 -87.8200 255° West 424 488 29,000 -984 Descending Indianapolis Center
Wed 09:26:13 PM 39.4036 -87.9672 260° West 419 482 28,000 -488 Descending Indianapolis Center
Wed 09:27:15 PM 39.3775 -88.1036 256° West 402 463 28,000 -98 Level Indianapolis Center
Wed 09:28:16 PM 39.3408 -88.2375 251° West 393 452 27,800 -639 Descending Indianapolis Center
Wed 09:29:17 PM 39.3067 -88.3697 252° West 392 451 26,700 -1,033 Descending Indianapolis Center
Wed 09:30:18 PM 39.2733 -88.4967 251° West 383 441 25,700 -1,033 Descending Indianapolis Center
Wed 09:31:19 PM 39.2333 -88.6458 251° West 371 427 24,600 -1,033 Descending Indianapolis Center
Wed 09:32:20 PM 39.2003 -88.7700 251° West 367 422 23,600 -1,024 Descending Indianapolis Center
Wed 09:33:22 PM 39.1669 -88.8942 251° West 367 422 22,500 -1,122 Descending Indianapolis Center
Wed 09:34:23 PM 39.1339 -89.0136 250° West 362 417 21,300 -1,180 Descending Indianapolis Center
Wed 09:35:24 PM 39.1025 -89.1272 250° West 352 405 20,100 -1,364 Descending Indianapolis Center
Wed 09:36:13 PM 39.0808 -89.1672 235° Southwest 343 395 18,800 -1,886 Descending FAA TRACON SMA TRACON (SMA)
Wed 09:36:34 PM 39.0683 -89.2108 250° West 338 389 17,900 -2,049 Descending FAA TRACON SMA TRACON (SMA)
Wed 09:36:54 PM 39.0678 -89.2494 269° West 342 394 17,400 -1,538 Descending FAA TRACON SMA TRACON (SMA)
Wed 09:37:13 PM 39.0539 -89.2817 241° Southwest 332 382 16,900 -1,692 Descending FAA TRACON SMA TRACON (SMA)
Wed 09:37:33 PM 39.0444 -89.3236 254° West 322 371 16,300 -1,610 Descending FAA TRACON SMA TRACON (SMA)
Wed 09:37:54 PM 39.0372 -89.3569 254° West 316 364 15,800 -1,171 Descending FAA TRACON SMA TRACON (SMA)
Wed 09:38:14 PM 39.0278 -89.3886 249° West 309 356 15,500 -1,077 Descending FAA TRACON SMA TRACON (SMA)
Wed 09:38:33 PM 39.0197 -89.4283 255° West 300 345 15,100 -1,077 Descending FAA TRACON SMA TRACON (SMA)
Wed 09:38:53 PM 39.0136 -89.4611 257° West 304 350 14,800 -878 Descending FAA TRACON SMA TRACON (SMA)
Wed 09:39:14 PM 39.0058 -89.4942 253° West 311 358 14,500 -1,050 Descending FAA TRACON SMA TRACON (SMA)
Wed 09:39:33 PM 38.9944 -89.5350 250° West 316 364 14,100 -1,077 Descending FAA TRACON SMA TRACON (SMA)
Wed 09:39:53 PM 38.9856 -89.5667 250° West 311 358 13,800 -878 Descending FAA TRACON SMA TRACON (SMA)
Wed 09:40:14 PM 38.9750 -89.5972 246° West 304 350 13,500 -1,050 Descending FAA TRACON SMA TRACON (SMA)
Wed 09:40:33 PM 38.9631 -89.6350 248° West 297 342 13,100 -1,050 Descending FAA TRACON SMA TRACON (SMA)
Wed 09:40:54 PM 38.9539 -89.6650 249° West 294 338 12,800 -878 Descending FAA TRACON SMA TRACON (SMA)
Wed 09:41:14 PM 38.9439 -89.6944 246° West 293 337 12,500 -1,077 Descending FAA TRACON SMA TRACON (SMA)
Wed 09:41:33 PM 38.9314 -89.7317 247° West 294 338 12,100 -1,050 Descending FAA TRACON SMA TRACON (SMA)
Wed 09:41:54 PM 38.9222 -89.7619 249° West 295 339 11,800 -1,050 Descending FAA TRACON SMA TRACON (SMA)
Wed 09:42:13 PM 38.9119 -89.7922 246° West 299 344 11,400 -1,385 Descending FAA TRACON SMA TRACON (SMA)
Wed 09:42:33 PM 38.8997 -89.8303 248° West 302 348 10,900 -1,317 Descending FAA TRACON SMA TRACON (SMA)
Wed 09:42:54 PM 38.8897 -89.8611 247° West 301 346 10,500 -1,050 Descending FAA TRACON SMA TRACON (SMA)
Wed 09:43:13 PM 38.8803 -89.8906 248° West 295 339 10,200 -923 Descending FAA TRACON SMA TRACON (SMA)
Wed 09:43:33 PM 38.8686 -89.9264 247° West 284 327 9,900 -439 Descending FAA TRACON SMA TRACON (SMA)
Wed 09:43:54 PM 38.8600 -89.9533 248° West 270 311 9,900 -450 Level FAA TRACON SMA TRACON (SMA)
Wed 09:44:13 PM 38.8519 -89.9789 248° West 256 295 9,600 -1,077 Descending FAA TRACON SMA TRACON (SMA)
Wed 09:44:33 PM 38.8414 -90.0108 247° West 252 290 9,200 -1,171 Descending FAA TRACON SMA TRACON (SMA)
Wed 09:44:54 PM 38.8331 -90.0364 247° West 253 291 8,800 -1,050 Descending FAA TRACON SMA TRACON (SMA)
Wed 09:45:13 PM 38.8250 -90.0628 249° West 256 295 8,500 -769 Descending FAA TRACON SMA TRACON (SMA)
Wed 09:45:33 PM 38.8142 -90.0947 246° West 254 292 8,300 -439 Descending FAA TRACON SMA TRACON (SMA)
Wed 09:45:54 PM 38.8064 -90.1206 249° West 253 291 8,200 -146 Descending FAA TRACON SMA TRACON (SMA)
Wed 09:46:14 PM 38.7992 -90.1469 251° West 254 292 8,200 -150 Level FAA TRACON SMA TRACON (SMA)
Wed 09:46:34 PM 38.8025 -90.1808 277° West 261 300 8,100 -300 Descending FAA TRACON SMA TRACON (SMA)
Wed 09:46:54 PM 38.8133 -90.2058 299° West 261 300 8,000 -308 Descending FAA TRACON SMA TRACON (SMA)
Wed 09:47:13 PM 38.8244 -90.2292 301° West 255 293 7,900 -450 Descending FAA TRACON SMA TRACON (SMA)
Wed 09:47:34 PM 38.8372 -90.2578 300° West 241 277 7,700 -585 Descending FAA TRACON SMA TRACON (SMA)
Wed 09:47:54 PM 38.8469 -90.2797 300° West 234 269 7,500 -923 Descending FAA TRACON SMA TRACON (SMA)
Wed 09:48:13 PM 38.8572 -90.3031 300° West 238 274 7,100 -1,692 Descending FAA TRACON SMA TRACON (SMA)
Wed 09:48:33 PM 38.8703 -90.3322 300° West 245 282 6,400 -1,902 Descending FAA TRACON SMA TRACON (SMA)
Wed 09:48:54 PM 38.8808 -90.3550 301° West 244 281 5,800 -1,800 Descending FAA TRACON SMA TRACON (SMA)
Wed 09:49:13 PM 38.8911 -90.3781 300° West 241 277 5,200 -1,231 Descending FAA TRACON SMA TRACON (SMA)
Wed 09:49:33 PM 38.9033 -90.4053 300° West 231 266 5,000 -732 Descending FAA TRACON SMA TRACON (SMA)
Wed 09:49:54 PM 38.9086 -90.4281 287° West 219 252 4,700 -1,350 Descending FAA TRACON SMA TRACON (SMA)
Wed 09:50:13 PM 38.9142 -90.4578 284° West 223 257 4,100 -1,077 Descending FAA TRACON SMA TRACON (SMA)
Wed 09:50:33 PM 38.9089 -90.4786 252° West 221 254 4,000 -146 Descending FAA TRACON SMA TRACON (SMA)
Wed 09:50:54 PM 38.8958 -90.4917 218° Southwest 203 234 4,000 -300 Level FAA TRACON SMA TRACON (SMA)
Wed 09:51:13 PM 38.8786 -90.5053 212° Southwest 189 217 3,800 -769 Descending FAA TRACON SMA TRACON (SMA)
Wed 09:51:33 PM 38.8644 -90.5108 197° South 179 206 3,500 -878 Descending FAA TRACON SMA TRACON (SMA)
Wed 09:51:54 PM 38.8519 -90.5058 163° South 165 190 3,200 -732 Descending FAA TRACON SMA TRACON (SMA)
Wed 09:52:14 PM 38.8375 -90.4939 147° Southeast 160 184 3,000 -769 Descending FAA TRACON SMA TRACON (SMA)
Wed 09:52:33 PM 38.8267 -90.4836 144° Southeast 158 182 2,700 -750 Descending FAA TRACON SMA TRACON (SMA)
Wed 09:52:54 PM 38.8164 -90.4733 142° Southeast 153 176 2,500 -585 Descending FAA TRACON SMA TRACON (SMA)
Wed 09:53:14 PM 38.8061 -90.4575 130° Southeast 151 174 2,300 -462 Descending FAA TRACON SMA TRACON (SMA)
Wed 09:53:33 PM 38.7997 -90.4436 121° Southeast 148 170 2,200 -450 Descending FAA TRACON SMA TRACON (SMA)
Wed 09:53:54 PM 38.7939 -90.4322 123° Southeast 132 152 2,000 -585 Descending FAA TRACON SMA TRACON (SMA)
Wed 09:54:14 PM 38.7864 -90.4181 124° Southeast 123 142 1,800 -615 Descending FAA TRACON SMA TRACON (SMA)
Wed 09:54:33 PM 38.7808 -90.4069 123° Southeast 122 140 1,600 -600 Descending FAA TRACON SMA TRACON (SMA)
Wed 09:54:54 PM 38.7753 -90.3956 122° Southeast 121 139 1,400 -585 Descending FAA TRACON SMA TRACON (SMA)
Wed 09:55:14 PM 38.7686 -90.3819 122° Southeast 118 136 1,200 -615 Descending FAA TRACON SMA TRACON (SMA)
Wed 09:55:33 PM 38.7631 -90.3706 122° Southeast 120 138 1,000 -600 Descending FAA TRACON SMA TRACON (SMA)
Wed 09:55:54 PM 38.7572 -90.3586 122° Southeast 124 143 800 -439 Descending FAA TRACON SMA TRACON (SMA)
Wed 09:56:14 PM 38.7544 -90.3533 124° Southeast 124 143 700 -300 Descending FAA TRACON SMA TRACON (SMA)

Login

Don't have an account? Register now (free) for customized features, flight alerts, and more!